sensor_id;sensor_type;location;lat;lon;timestamp;P1;durP1;ratioP1;P2;durP2;ratioP2
64986;SDS011;67903;52.108;9.358;2023-11-18T00:00:11;22.77;;;17.63;;
64986;SDS011;67903;52.108;9.358;2023-11-18T00:02:58;20.92;;;16.90;;
64986;SDS011;67903;52.108;9.358;2023-11-18T00:05:44;20.67;;;15.27;;
64986;SDS011;67903;52.108;9.358;2023-11-18T00:08:30;18.05;;;15.82;;
64986;SDS011;67903;52.108;9.358;2023-11-18T00:11:16;21.38;;;16.60;;
64986;SDS011;67903;52.108;9.358;2023-11-18T00:14:01;22.63;;;16.00;;
64986;SDS011;67903;52.108;9.358;2023-11-18T00:16:49;20.65;;;15.45;;
64986;SDS011;67903;52.108;9.358;2023-11-18T00:19:35;22.23;;;16.98;;
64986;SDS011;67903;52.108;9.358;2023-11-18T00:22:22;21.02;;;17.50;;
64986;SDS011;67903;52.108;9.358;2023-11-18T00:25:07;20.55;;;16.13;;
64986;SDS011;67903;52.108;9.358;2023-11-18T00:27:53;20.38;;;16.77;;
64986;SDS011;67903;52.108;9.358;2023-11-18T00:30:39;20.63;;;16.60;;
64986;SDS011;67903;52.108;9.358;2023-11-18T00:33:25;23.27;;;17.60;;
64986;SDS011;67903;52.108;9.358;2023-11-18T00:36:10;26.05;;;16.52;;
64986;SDS011;67903;52.108;9.358;2023-11-18T00:38:56;26.10;;;17.52;;
64986;SDS011;67903;52.108;9.358;2023-11-18T00:41:41;25.48;;;18.27;;
64986;SDS011;67903;52.108;9.358;2023-11-18T00:44:27;26.00;;;17.98;;
64986;SDS011;67903;52.108;9.358;2023-11-18T00:47:12;30.60;;;19.67;;
64986;SDS011;67903;52.108;9.358;2023-11-18T00:49:58;27.98;;;18.65;;
64986;SDS011;67903;52.108;9.358;2023-11-18T00:52:47;25.75;;;18.63;;
64986;SDS011;67903;52.108;9.358;2023-11-18T00:55:33;26.55;;;18.00;;
64986;SDS011;67903;52.108;9.358;2023-11-18T00:58:19;23.15;;;17.13;;
64986;SDS011;67903;52.108;9.358;2023-11-18T01:01:05;26.17;;;18.02;;
64986;SDS011;67903;52.108;9.358;2023-11-18T01:03:51;24.08;;;17.85;;
64986;SDS011;67903;52.108;9.358;2023-11-18T01:06:39;23.35;;;17.77;;
64986;SDS011;67903;52.108;9.358;2023-11-18T01:09:24;25.30;;;18.33;;
64986;SDS011;67903;52.108;9.358;2023-11-18T01:12:10;24.15;;;17.77;;
64986;SDS011;67903;52.108;9.358;2023-11-18T01:14:56;21.42;;;17.38;;
64986;SDS011;67903;52.108;9.358;2023-11-18T01:17:41;24.52;;;18.38;;
64986;SDS011;67903;52.108;9.358;2023-11-18T01:20:27;24.35;;;18.17;;
64986;SDS011;67903;52.108;9.358;2023-11-18T01:23:13;29.63;;;18.65;;
64986;SDS011;67903;52.108;9.358;2023-11-18T01:25:59;27.35;;;18.33;;
64986;SDS011;67903;52.108;9.358;2023-11-18T01:28:46;26.63;;;19.52;;
64986;SDS011;67903;52.108;9.358;2023-11-18T01:31:31;29.08;;;19.40;;
64986;SDS011;67903;52.108;9.358;2023-11-18T01:34:34;28.10;;;19.15;;
64986;SDS011;67903;52.108;9.358;2023-11-18T01:37:21;27.50;;;19.33;;
64986;SDS011;67903;52.108;9.358;2023-11-18T01:40:08;30.88;;;20.67;;
64986;SDS011;67903;52.108;9.358;2023-11-18T01:42:55;31.40;;;22.02;;
64986;SDS011;67903;52.108;9.358;2023-11-18T01:45:41;35.40;;;23.17;;
64986;SDS011;67903;52.108;9.358;2023-11-18T01:48:27;31.73;;;21.52;;
64986;SDS011;67903;52.108;9.358;2023-11-18T01:51:14;34.88;;;22.88;;
64986;SDS011;67903;52.108;9.358;2023-11-18T01:54:00;32.08;;;21.98;;
64986;SDS011;67903;52.108;9.358;2023-11-18T01:56:49;34.03;;;23.05;;
64986;SDS011;67903;52.108;9.358;2023-11-18T01:59:35;33.50;;;22.15;;
64986;SDS011;67903;52.108;9.358;2023-11-18T02:02:23;31.67;;;22.15;;
64986;SDS011;67903;52.108;9.358;2023-11-18T02:05:10;32.88;;;21.63;;
64986;SDS011;67903;52.108;9.358;2023-11-18T02:07:58;33.40;;;22.40;;
64986;SDS011;67903;52.108;9.358;2023-11-18T02:10:47;33.35;;;22.85;;
64986;SDS011;67903;52.108;9.358;2023-11-18T02:13:36;33.95;;;23.77;;
64986;SDS011;67903;52.108;9.358;2023-11-18T02:16:24;33.30;;;22.42;;
64986;SDS011;67903;52.108;9.358;2023-11-18T02:19:19;35.40;;;23.17;;
64986;SDS011;67903;52.108;9.358;2023-11-18T02:22:09;35.58;;;24.05;;
64986;SDS011;67903;52.108;9.358;2023-11-18T02:25:01;41.03;;;24.05;;
64986;SDS011;67903;52.108;9.358;2023-11-18T02:27:51;34.88;;;23.58;;
64986;SDS011;67903;52.108;9.358;2023-11-18T02:30:37;38.88;;;23.80;;
64986;SDS011;67903;52.108;9.358;2023-11-18T02:33:39;38.78;;;23.63;;
64986;SDS011;67903;52.108;9.358;2023-11-18T02:36:39;37.28;;;25.10;;
64986;SDS011;67903;52.108;9.358;2023-11-18T02:39:27;37.17;;;23.42;;
64986;SDS011;67903;52.108;9.358;2023-11-18T02:42:18;34.88;;;23.88;;
64986;SDS011;67903;52.108;9.358;2023-11-18T02:45:08;32.55;;;21.90;;
64986;SDS011;67903;52.108;9.358;2023-11-18T02:47:57;30.70;;;21.23;;
64986;SDS011;67903;52.108;9.358;2023-11-18T02:50:43;31.90;;;21.92;;
64986;SDS011;67903;52.108;9.358;2023-11-18T02:53:28;30.25;;;22.15;;
64986;SDS011;67903;52.108;9.358;2023-11-18T02:56:14;33.10;;;21.52;;
64986;SDS011;67903;52.108;9.358;2023-11-18T02:59:00;32.63;;;22.67;;
64986;SDS011;67903;52.108;9.358;2023-11-18T03:01:46;36.47;;;23.50;;
64986;SDS011;67903;52.108;9.358;2023-11-18T03:04:31;38.60;;;23.92;;
64986;SDS011;67903;52.108;9.358;2023-11-18T03:07:17;36.70;;;24.25;;
64986;SDS011;67903;52.108;9.358;2023-11-18T03:10:02;41.40;;;25.92;;
64986;SDS011;67903;52.108;9.358;2023-11-18T03:12:54;38.83;;;23.42;;
64986;SDS011;67903;52.108;9.358;2023-11-18T03:15:39;34.97;;;23.27;;
64986;SDS011;67903;52.108;9.358;2023-11-18T03:18:25;37.55;;;23.45;;
64986;SDS011;67903;52.108;9.358;2023-11-18T03:21:14;41.22;;;24.52;;
64986;SDS011;67903;52.108;9.358;2023-11-18T03:23:59;34.90;;;23.20;;
64986;SDS011;67903;52.108;9.358;2023-11-18T03:26:45;43.78;;;24.40;;
64986;SDS011;67903;52.108;9.358;2023-11-18T03:29:32;39.88;;;25.23;;
64986;SDS011;67903;52.108;9.358;2023-11-18T03:32:18;44.47;;;27.25;;
64986;SDS011;67903;52.108;9.358;2023-11-18T03:35:04;46.63;;;26.70;;
64986;SDS011;67903;52.108;9.358;2023-11-18T03:37:56;42.28;;;25.40;;
64986;SDS011;67903;52.108;9.358;2023-11-18T03:40:42;38.67;;;25.70;;
64986;SDS011;67903;52.108;9.358;2023-11-18T03:43:30;42.33;;;24.85;;
64986;SDS011;67903;52.108;9.358;2023-11-18T03:46:15;39.90;;;24.35;;
64986;SDS011;67903;52.108;9.358;2023-11-18T03:49:01;41.17;;;24.63;;
64986;SDS011;67903;52.108;9.358;2023-11-18T03:51:46;42.22;;;24.92;;
64986;SDS011;67903;52.108;9.358;2023-11-18T03:54:32;39.67;;;24.98;;
64986;SDS011;67903;52.108;9.358;2023-11-18T03:57:17;48.45;;;26.67;;
64986;SDS011;67903;52.108;9.358;2023-11-18T04:00:03;49.83;;;26.13;;
64986;SDS011;67903;52.108;9.358;2023-11-18T04:02:57;43.20;;;26.58;;
64986;SDS011;67903;52.108;9.358;2023-11-18T04:05:46;47.33;;;27.95;;
64986;SDS011;67903;52.108;9.358;2023-11-18T04:08:33;48.60;;;25.95;;
64986;SDS011;67903;52.108;9.358;2023-11-18T04:11:19;47.25;;;27.30;;
64986;SDS011;67903;52.108;9.358;2023-11-18T04:14:05;47.55;;;27.10;;
64986;SDS011;67903;52.108;9.358;2023-11-18T04:16:50;45.35;;;24.75;;
64986;SDS011;67903;52.108;9.358;2023-11-18T04:19:36;48.63;;;26.98;;
64986;SDS011;67903;52.108;9.358;2023-11-18T04:22:23;42.83;;;24.73;;
64986;SDS011;67903;52.108;9.358;2023-11-18T04:25:09;46.17;;;25.30;;
64986;SDS011;67903;52.108;9.358;2023-11-18T04:27:56;47.85;;;26.42;;
64986;SDS011;67903;52.108;9.358;2023-11-18T04:30:42;55.15;;;29.13;;
64986;SDS011;67903;52.108;9.358;2023-11-18T04:33:28;45.05;;;25.95;;
64986;SDS011;67903;52.108;9.358;2023-11-18T04:36:14;53.95;;;27.75;;
64986;SDS011;67903;52.108;9.358;2023-11-18T04:39:01;54.75;;;26.75;;
64986;SDS011;67903;52.108;9.358;2023-11-18T04:41:47;55.35;;;26.70;;
64986;SDS011;67903;52.108;9.358;2023-11-18T04:44:33;56.33;;;27.52;;
64986;SDS011;67903;52.108;9.358;2023-11-18T04:47:18;58.25;;;27.98;;
64986;SDS011;67903;52.108;9.358;2023-11-18T04:50:04;55.15;;;28.00;;
64986;SDS011;67903;52.108;9.358;2023-11-18T04:52:50;57.97;;;27.70;;
64986;SDS011;67903;52.108;9.358;2023-11-18T04:55:36;56.25;;;27.42;;
64986;SDS011;67903;52.108;9.358;2023-11-18T04:58:22;57.47;;;26.70;;
64986;SDS011;67903;52.108;9.358;2023-11-18T05:01:08;59.05;;;27.67;;
64986;SDS011;67903;52.108;9.358;2023-11-18T05:03:54;56.67;;;27.75;;
64986;SDS011;67903;52.108;9.358;2023-11-18T05:06:40;57.78;;;27.48;;
64986;SDS011;67903;52.108;9.358;2023-11-18T05:09:25;54.05;;;27.25;;
64986;SDS011;67903;52.108;9.358;2023-11-18T05:12:11;54.30;;;26.65;;
64986;SDS011;67903;52.108;9.358;2023-11-18T05:14:56;51.33;;;27.67;;
64986;SDS011;67903;52.108;9.358;2023-11-18T05:17:42;54.20;;;26.25;;
64986;SDS011;67903;52.108;9.358;2023-11-18T05:20:28;52.65;;;25.88;;
64986;SDS011;67903;52.108;9.358;2023-11-18T05:23:13;54.60;;;28.50;;
64986;SDS011;67903;52.108;9.358;2023-11-18T05:25:59;49.97;;;26.02;;
64986;SDS011;67903;52.108;9.358;2023-11-18T05:28:44;53.42;;;27.15;;
64986;SDS011;67903;52.108;9.358;2023-11-18T05:31:30;50.80;;;24.73;;
64986;SDS011;67903;52.108;9.358;2023-11-18T05:34:17;52.22;;;25.73;;
64986;SDS011;67903;52.108;9.358;2023-11-18T05:37:05;47.25;;;24.67;;
64986;SDS011;67903;52.108;9.358;2023-11-18T05:39:51;51.13;;;25.75;;
64986;SDS011;67903;52.108;9.358;2023-11-18T05:42:44;52.92;;;25.38;;
64986;SDS011;67903;52.108;9.358;2023-11-18T05:45:31;54.85;;;24.48;;
64986;SDS011;67903;52.108;9.358;2023-11-18T05:48:36;53.33;;;25.50;;
64986;SDS011;67903;52.108;9.358;2023-11-18T05:51:27;49.13;;;26.50;;
64986;SDS011;67903;52.108;9.358;2023-11-18T05:54:15;55.05;;;29.05;;
64986;SDS011;67903;52.108;9.358;2023-11-18T05:57:01;54.38;;;29.50;;
64986;SDS011;67903;52.108;9.358;2023-11-18T05:59:47;50.20;;;25.38;;
64986;SDS011;67903;52.108;9.358;2023-11-18T06:02:35;57.53;;;26.65;;
64986;SDS011;67903;52.108;9.358;2023-11-18T06:05:22;51.58;;;25.88;;
64986;SDS011;67903;52.108;9.358;2023-11-18T06:08:11;55.25;;;26.83;;
64986;SDS011;67903;52.108;9.358;2023-11-18T06:10:57;56.47;;;27.60;;
64986;SDS011;67903;52.108;9.358;2023-11-18T06:13:50;59.33;;;27.42;;
64986;SDS011;67903;52.108;9.358;2023-11-18T06:16:37;59.03;;;27.40;;
64986;SDS011;67903;52.108;9.358;2023-11-18T06:19:27;61.53;;;28.17;;
64986;SDS011;67903;52.108;9.358;2023-11-18T06:22:13;61.10;;;28.63;;
64986;SDS011;67903;52.108;9.358;2023-11-18T06:24:59;58.70;;;26.83;;
64986;SDS011;67903;52.108;9.358;2023-11-18T06:27:45;58.45;;;27.45;;
64986;SDS011;67903;52.108;9.358;2023-11-18T06:30:33;55.95;;;26.15;;
64986;SDS011;67903;52.108;9.358;2023-11-18T06:33:18;56.95;;;25.50;;
64986;SDS011;67903;52.108;9.358;2023-11-18T06:36:08;54.13;;;24.70;;
64986;SDS011;67903;52.108;9.358;2023-11-18T06:38:56;58.15;;;27.02;;
64986;SDS011;67903;52.108;9.358;2023-11-18T06:41:42;55.63;;;25.70;;
64986;SDS011;67903;52.108;9.358;2023-11-18T06:44:34;49.47;;;25.45;;
64986;SDS011;67903;52.108;9.358;2023-11-18T06:47:20;58.08;;;26.38;;
64986;SDS011;67903;52.108;9.358;2023-11-18T06:50:05;50.22;;;25.13;;
64986;SDS011;67903;52.108;9.358;2023-11-18T06:52:53;57.13;;;25.50;;
64986;SDS011;67903;52.108;9.358;2023-11-18T06:55:39;51.80;;;24.08;;
64986;SDS011;67903;52.108;9.358;2023-11-18T06:58:25;53.38;;;24.73;;
64986;SDS011;67903;52.108;9.358;2023-11-18T07:01:13;55.60;;;24.20;;
64986;SDS011;67903;52.108;9.358;2023-11-18T07:04:03;59.72;;;24.48;;
64986;SDS011;67903;52.108;9.358;2023-11-18T07:06:49;53.65;;;25.48;;
64986;SDS011;67903;52.108;9.358;2023-11-18T07:09:35;56.85;;;24.75;;
64986;SDS011;67903;52.108;9.358;2023-11-18T07:12:21;53.15;;;25.58;;
64986;SDS011;67903;52.108;9.358;2023-11-18T07:15:07;52.28;;;23.35;;
64986;SDS011;67903;52.108;9.358;2023-11-18T07:17:56;51.22;;;23.60;;
64986;SDS011;67903;52.108;9.358;2023-11-18T07:20:42;50.40;;;24.33;;
64986;SDS011;67903;52.108;9.358;2023-11-18T07:23:28;45.22;;;24.20;;
64986;SDS011;67903;52.108;9.358;2023-11-18T07:26:14;43.20;;;22.83;;
64986;SDS011;67903;52.108;9.358;2023-11-18T07:28:59;40.20;;;21.60;;
64986;SDS011;67903;52.108;9.358;2023-11-18T07:31:46;39.00;;;21.08;;
64986;SDS011;67903;52.108;9.358;2023-11-18T07:34:32;37.15;;;22.08;;
64986;SDS011;67903;52.108;9.358;2023-11-18T07:37:17;34.10;;;19.48;;
64986;SDS011;67903;52.108;9.358;2023-11-18T07:40:03;40.40;;;20.73;;
64986;SDS011;67903;52.108;9.358;2023-11-18T07:42:50;39.97;;;22.17;;
64986;SDS011;67903;52.108;9.358;2023-11-18T07:45:36;41.20;;;23.05;;
64986;SDS011;67903;52.108;9.358;2023-11-18T07:48:23;36.38;;;20.45;;
64986;SDS011;67903;52.108;9.358;2023-11-18T07:51:09;38.47;;;20.77;;
64986;SDS011;67903;52.108;9.358;2023-11-18T07:53:56;37.75;;;20.40;;
64986;SDS011;67903;52.108;9.358;2023-11-18T07:56:42;31.52;;;19.42;;
64986;SDS011;67903;52.108;9.358;2023-11-18T07:59:28;35.05;;;19.75;;
64986;SDS011;67903;52.108;9.358;2023-11-18T08:02:14;33.10;;;19.65;;
64986;SDS011;67903;52.108;9.358;2023-11-18T08:05:01;31.33;;;18.25;;
64986;SDS011;67903;52.108;9.358;2023-11-18T08:07:48;32.25;;;18.85;;
64986;SDS011;67903;52.108;9.358;2023-11-18T08:10:34;29.15;;;18.42;;
64986;SDS011;67903;52.108;9.358;2023-11-18T08:13:23;31.95;;;19.30;;
64986;SDS011;67903;52.108;9.358;2023-11-18T08:16:09;30.15;;;18.35;;
64986;SDS011;67903;52.108;9.358;2023-11-18T08:18:56;27.23;;;17.45;;
64986;SDS011;67903;52.108;9.358;2023-11-18T08:21:42;31.92;;;18.48;;
64986;SDS011;67903;52.108;9.358;2023-11-18T08:24:27;30.08;;;17.10;;
64986;SDS011;67903;52.108;9.358;2023-11-18T08:27:14;28.73;;;18.58;;
64986;SDS011;67903;52.108;9.358;2023-11-18T08:30:00;29.33;;;18.33;;
64986;SDS011;67903;52.108;9.358;2023-11-18T08:32:46;29.13;;;17.90;;
64986;SDS011;67903;52.108;9.358;2023-11-18T08:35:33;26.67;;;16.83;;
64986;SDS011;67903;52.108;9.358;2023-11-18T08:38:18;25.40;;;17.02;;
64986;SDS011;67903;52.108;9.358;2023-11-18T08:41:05;25.08;;;16.95;;
64986;SDS011;67903;52.108;9.358;2023-11-18T08:43:54;25.77;;;17.25;;
64986;SDS011;67903;52.108;9.358;2023-11-18T08:46:44;27.98;;;17.08;;
64986;SDS011;67903;52.108;9.358;2023-11-18T08:49:30;24.55;;;16.45;;
64986;SDS011;67903;52.108;9.358;2023-11-18T08:52:19;26.75;;;17.25;;
64986;SDS011;67903;52.108;9.358;2023-11-18T08:55:04;24.52;;;15.88;;
64986;SDS011;67903;52.108;9.358;2023-11-18T08:58:06;23.52;;;14.93;;
64986;SDS011;67903;52.108;9.358;2023-11-18T09:01:14;22.42;;;15.32;;
64986;SDS011;67903;52.108;9.358;2023-11-18T09:04:00;21.52;;;13.77;;
64986;SDS011;67903;52.108;9.358;2023-11-18T09:06:46;22.20;;;14.27;;
64986;SDS011;67903;52.108;9.358;2023-11-18T09:09:33;17.73;;;12.85;;
64986;SDS011;67903;52.108;9.358;2023-11-18T09:12:19;18.20;;;12.80;;
64986;SDS011;67903;52.108;9.358;2023-11-18T09:15:05;16.52;;;11.50;;
64986;SDS011;67903;52.108;9.358;2023-11-18T09:17:53;15.65;;;10.50;;
64986;SDS011;67903;52.108;9.358;2023-11-18T09:20:39;15.02;;;10.55;;
64986;SDS011;67903;52.108;9.358;2023-11-18T09:23:26;14.38;;;10.98;;
64986;SDS011;67903;52.108;9.358;2023-11-18T09:26:14;12.20;;;9.88;;
64986;SDS011;67903;52.108;9.358;2023-11-18T09:29:02;14.25;;;10.50;;
64986;SDS011;67903;52.108;9.358;2023-11-18T09:31:47;12.05;;;9.70;;
64986;SDS011;67903;52.108;9.358;2023-11-18T09:34:34;13.32;;;9.55;;
64986;SDS011;67903;52.108;9.358;2023-11-18T09:37:20;12.75;;;9.23;;
64986;SDS011;67903;52.108;9.358;2023-11-18T09:40:08;11.80;;;9.07;;
64986;SDS011;67903;52.108;9.358;2023-11-18T09:42:58;12.63;;;8.57;;
64986;SDS011;67903;52.108;9.358;2023-11-18T09:45:45;13.13;;;9.02;;
64986;SDS011;67903;52.108;9.358;2023-11-18T09:48:32;11.80;;;8.65;;
64986;SDS011;67903;52.108;9.358;2023-11-18T09:51:26;10.82;;;8.32;;
64986;SDS011;67903;52.108;9.358;2023-11-18T09:57:08;14.65;;;9.48;;
64986;SDS011;67903;52.108;9.358;2023-11-18T10:00:02;10.55;;;8.50;;
64986;SDS011;67903;52.108;9.358;2023-11-18T10:02:55;10.05;;;8.55;;
64986;SDS011;67903;52.108;9.358;2023-11-18T10:05:42;10.25;;;8.80;;
64986;SDS011;67903;52.108;9.358;2023-11-18T10:08:30;10.13;;;8.10;;
64986;SDS011;67903;52.108;9.358;2023-11-18T10:11:16;13.18;;;8.52;;
64986;SDS011;67903;52.108;9.358;2023-11-18T10:14:02;11.98;;;8.68;;
64986;SDS011;67903;52.108;9.358;2023-11-18T10:16:51;11.77;;;8.27;;
64986;SDS011;67903;52.108;9.358;2023-11-18T10:19:55;11.15;;;7.88;;
64986;SDS011;67903;52.108;9.358;2023-11-18T10:22:42;8.45;;;7.20;;
64986;SDS011;67903;52.108;9.358;2023-11-18T10:25:29;10.25;;;7.75;;
64986;SDS011;67903;52.108;9.358;2023-11-18T10:28:28;11.02;;;7.63;;
64986;SDS011;67903;52.108;9.358;2023-11-18T10:31:18;9.77;;;7.60;;
64986;SDS011;67903;52.108;9.358;2023-11-18T10:34:04;9.45;;;7.30;;
64986;SDS011;67903;52.108;9.358;2023-11-18T10:36:59;9.48;;;7.32;;
64986;SDS011;67903;52.108;9.358;2023-11-18T10:39:47;9.43;;;6.93;;
64986;SDS011;67903;52.108;9.358;2023-11-18T10:42:36;9.63;;;7.55;;
64986;SDS011;67903;52.108;9.358;2023-11-18T10:45:25;9.57;;;7.45;;
64986;SDS011;67903;52.108;9.358;2023-11-18T10:48:12;11.10;;;8.68;;
64986;SDS011;67903;52.108;9.358;2023-11-18T10:51:01;8.75;;;7.20;;
64986;SDS011;67903;52.108;9.358;2023-11-18T10:53:50;8.70;;;7.20;;
64986;SDS011;67903;52.108;9.358;2023-11-18T10:56:51;7.95;;;6.93;;
64986;SDS011;67903;52.108;9.358;2023-11-18T11:00:03;8.82;;;6.72;;
64986;SDS011;67903;52.108;9.358;2023-11-18T11:02:58;9.27;;;7.50;;
64986;SDS011;67903;52.108;9.358;2023-11-18T11:05:44;19.55;;;14.77;;
64986;SDS011;67903;52.108;9.358;2023-11-18T11:08:29;17.67;;;12.65;;
64986;SDS011;67903;52.108;9.358;2023-11-18T11:11:26;8.13;;;7.28;;
64986;SDS011;67903;52.108;9.358;2023-11-18T11:14:20;17.50;;;13.23;;
64986;SDS011;67903;52.108;9.358;2023-11-18T11:17:12;9.27;;;8.30;;
64986;SDS011;67903;52.108;9.358;2023-11-18T11:20:05;11.90;;;10.43;;
64986;SDS011;67903;52.108;9.358;2023-11-18T11:23:18;12.07;;;9.02;;
64986;SDS011;67903;52.108;9.358;2023-11-18T11:26:23;11.35;;;9.20;;
64986;SDS011;67903;52.108;9.358;2023-11-18T11:29:25;12.25;;;9.65;;
64986;SDS011;67903;52.108;9.358;2023-11-18T11:32:18;9.82;;;7.53;;
64986;SDS011;67903;52.108;9.358;2023-11-18T11:35:31;9.15;;;7.22;;
64986;SDS011;67903;52.108;9.358;2023-11-18T11:38:22;8.43;;;7.45;;
64986;SDS011;67903;52.108;9.358;2023-11-18T11:41:09;8.57;;;7.22;;
64986;SDS011;67903;52.108;9.358;2023-11-18T11:44:04;8.60;;;7.22;;
64986;SDS011;67903;52.108;9.358;2023-11-18T11:46:51;9.07;;;7.55;;
64986;SDS011;67903;52.108;9.358;2023-11-18T11:49:43;10.10;;;7.85;;
64986;SDS011;67903;52.108;9.358;2023-11-18T11:52:56;9.07;;;7.30;;
64986;SDS011;67903;52.108;9.358;2023-11-18T11:55:52;8.48;;;7.07;;
64986;SDS011;67903;52.108;9.358;2023-11-18T11:58:40;8.05;;;6.45;;
64986;SDS011;67903;52.108;9.358;2023-11-18T12:01:35;8.65;;;7.70;;
64986;SDS011;67903;52.108;9.358;2023-11-18T12:04:23;9.57;;;8.10;;
64986;SDS011;67903;52.108;9.358;2023-11-18T12:07:14;9.32;;;7.75;;
64986;SDS011;67903;52.108;9.358;2023-11-18T12:10:07;9.68;;;7.40;;
64986;SDS011;67903;52.108;9.358;2023-11-18T12:13:11;10.77;;;7.60;;
64986;SDS011;67903;52.108;9.358;2023-11-18T12:16:05;10.27;;;7.65;;
64986;SDS011;67903;52.108;9.358;2023-11-18T12:19:28;9.32;;;7.53;;
64986;SDS011;67903;52.108;9.358;2023-11-18T12:22:18;9.57;;;8.50;;
64986;SDS011;67903;52.108;9.358;2023-11-18T12:28:06;8.45;;;7.45;;
64986;SDS011;67903;52.108;9.358;2023-11-18T12:30:53;8.27;;;7.20;;
64986;SDS011;67903;52.108;9.358;2023-11-18T12:36:56;11.43;;;7.75;;
64986;SDS011;67903;52.108;9.358;2023-11-18T12:42:59;8.93;;;7.82;;
64986;SDS011;67903;52.108;9.358;2023-11-18T12:48:59;8.73;;;7.53;;
64986;SDS011;67903;52.108;9.358;2023-11-18T12:51:47;9.73;;;7.57;;
64986;SDS011;67903;52.108;9.358;2023-11-18T12:54:32;10.07;;;7.57;;
64986;SDS011;67903;52.108;9.358;2023-11-18T12:57:21;11.18;;;8.07;;
64986;SDS011;67903;52.108;9.358;2023-11-18T13:00:11;16.90;;;8.43;;
64986;SDS011;67903;52.108;9.358;2023-11-18T13:02:57;10.20;;;9.10;;
64986;SDS011;67903;52.108;9.358;2023-11-18T13:05:43;9.95;;;8.20;;
64986;SDS011;67903;52.108;9.358;2023-11-18T13:08:30;9.73;;;8.57;;
64986;SDS011;67903;52.108;9.358;2023-11-18T13:11:15;9.93;;;8.55;;
64986;SDS011;67903;52.108;9.358;2023-11-18T13:14:01;10.10;;;7.72;;
64986;SDS011;67903;52.108;9.358;2023-11-18T13:16:48;9.95;;;8.65;;
64986;SDS011;67903;52.108;9.358;2023-11-18T13:19:35;10.77;;;8.65;;
64986;SDS011;67903;52.108;9.358;2023-11-18T13:22:21;11.73;;;8.38;;
64986;SDS011;67903;52.108;9.358;2023-11-18T13:25:19;10.23;;;8.38;;
64986;SDS011;67903;52.108;9.358;2023-11-18T13:28:07;9.18;;;8.18;;
64986;SDS011;67903;52.108;9.358;2023-11-18T13:30:55;10.95;;;8.18;;
64986;SDS011;67903;52.108;9.358;2023-11-18T13:33:46;9.13;;;8.23;;
64986;SDS011;67903;52.108;9.358;2023-11-18T13:36:34;11.02;;;8.55;;
64986;SDS011;67903;52.108;9.358;2023-11-18T13:39:22;9.80;;;8.30;;
64986;SDS011;67903;52.108;9.358;2023-11-18T13:42:20;11.68;;;8.85;;
64986;SDS011;67903;52.108;9.358;2023-11-18T13:45:13;10.82;;;8.73;;
64986;SDS011;67903;52.108;9.358;2023-11-18T13:48:21;9.82;;;8.38;;
64986;SDS011;67903;52.108;9.358;2023-11-18T13:51:09;14.57;;;9.15;;
64986;SDS011;67903;52.108;9.358;2023-11-18T13:54:00;9.70;;;8.65;;
64986;SDS011;67903;52.108;9.358;2023-11-18T13:56:46;13.32;;;9.27;;
64986;SDS011;67903;52.108;9.358;2023-11-18T13:59:32;12.52;;;9.52;;
64986;SDS011;67903;52.108;9.358;2023-11-18T14:02:18;12.35;;;8.52;;
64986;SDS011;67903;52.108;9.358;2023-11-18T14:05:05;11.60;;;9.27;;
64986;SDS011;67903;52.108;9.358;2023-11-18T14:07:54;10.23;;;9.00;;
64986;SDS011;67903;52.108;9.358;2023-11-18T14:10:54;12.15;;;9.27;;
64986;SDS011;67903;52.108;9.358;2023-11-18T14:13:47;11.35;;;8.75;;
64986;SDS011;67903;52.108;9.358;2023-11-18T14:16:33;11.85;;;9.27;;
64986;SDS011;67903;52.108;9.358;2023-11-18T14:19:19;11.90;;;8.80;;
64986;SDS011;67903;52.108;9.358;2023-11-18T14:22:05;11.15;;;8.65;;
64986;SDS011;67903;52.108;9.358;2023-11-18T14:24:54;10.57;;;8.52;;
64986;SDS011;67903;52.108;9.358;2023-11-18T14:27:39;10.30;;;8.13;;
64986;SDS011;67903;52.108;9.358;2023-11-18T14:30:26;10.23;;;8.75;;
64986;SDS011;67903;52.108;9.358;2023-11-18T14:33:11;10.98;;;8.95;;
64986;SDS011;67903;52.108;9.358;2023-11-18T14:35:57;10.10;;;8.45;;
64986;SDS011;67903;52.108;9.358;2023-11-18T14:38:42;11.75;;;8.32;;
64986;SDS011;67903;52.108;9.358;2023-11-18T14:41:29;10.38;;;8.48;;
64986;SDS011;67903;52.108;9.358;2023-11-18T14:44:16;10.05;;;8.35;;
64986;SDS011;67903;52.108;9.358;2023-11-18T14:47:02;8.95;;;7.85;;
64986;SDS011;67903;52.108;9.358;2023-11-18T14:49:50;10.90;;;8.80;;
64986;SDS011;67903;52.108;9.358;2023-11-18T14:52:36;10.23;;;8.30;;
64986;SDS011;67903;52.108;9.358;2023-11-18T14:55:21;10.90;;;8.25;;
64986;SDS011;67903;52.108;9.358;2023-11-18T14:58:07;10.27;;;8.88;;
64986;SDS011;67903;52.108;9.358;2023-11-18T15:00:53;12.68;;;8.68;;
64986;SDS011;67903;52.108;9.358;2023-11-18T15:03:42;9.90;;;8.75;;
64986;SDS011;67903;52.108;9.358;2023-11-18T15:06:27;11.48;;;8.85;;
64986;SDS011;67903;52.108;9.358;2023-11-18T15:09:14;11.27;;;8.68;;
64986;SDS011;67903;52.108;9.358;2023-11-18T15:11:59;12.35;;;8.70;;
64986;SDS011;67903;52.108;9.358;2023-11-18T15:14:45;10.57;;;8.32;;
64986;SDS011;67903;52.108;9.358;2023-11-18T15:17:30;10.20;;;8.82;;
64986;SDS011;67903;52.108;9.358;2023-11-18T15:20:31;11.77;;;8.77;;
64986;SDS011;67903;52.108;9.358;2023-11-18T15:23:17;10.05;;;8.55;;
64986;SDS011;67903;52.108;9.358;2023-11-18T15:26:06;10.15;;;8.05;;
64986;SDS011;67903;52.108;9.358;2023-11-18T15:28:53;9.20;;;7.97;;
64986;SDS011;67903;52.108;9.358;2023-11-18T15:31:42;11.25;;;8.88;;
64986;SDS011;67903;52.108;9.358;2023-11-18T15:34:28;11.25;;;9.43;;
64986;SDS011;67903;52.108;9.358;2023-11-18T15:37:14;13.57;;;9.85;;
64986;SDS011;67903;52.108;9.358;2023-11-18T15:39:59;12.60;;;9.68;;
64986;SDS011;67903;52.108;9.358;2023-11-18T15:42:46;12.60;;;10.25;;
64986;SDS011;67903;52.108;9.358;2023-11-18T15:45:35;12.70;;;9.48;;
64986;SDS011;67903;52.108;9.358;2023-11-18T15:48:21;12.88;;;9.48;;
64986;SDS011;67903;52.108;9.358;2023-11-18T15:51:09;12.40;;;9.52;;
64986;SDS011;67903;52.108;9.358;2023-11-18T15:53:58;11.02;;;9.00;;
64986;SDS011;67903;52.108;9.358;2023-11-18T15:56:43;10.68;;;8.43;;
64986;SDS011;67903;52.108;9.358;2023-11-18T15:59:29;10.82;;;9.35;;
64986;SDS011;67903;52.108;9.358;2023-11-18T16:02:16;10.18;;;8.45;;
64986;SDS011;67903;52.108;9.358;2023-11-18T16:05:01;12.20;;;9.73;;
64986;SDS011;67903;52.108;9.358;2023-11-18T16:07:49;12.27;;;9.88;;
64986;SDS011;67903;52.108;9.358;2023-11-18T16:10:36;11.55;;;9.40;;
64986;SDS011;67903;52.108;9.358;2023-11-18T16:13:23;12.60;;;10.48;;
64986;SDS011;67903;52.108;9.358;2023-11-18T16:16:08;14.35;;;9.88;;
64986;SDS011;67903;52.108;9.358;2023-11-18T16:18:54;12.95;;;10.15;;
64986;SDS011;67903;52.108;9.358;2023-11-18T16:21:40;13.73;;;10.07;;
64986;SDS011;67903;52.108;9.358;2023-11-18T16:24:26;13.55;;;10.88;;
64986;SDS011;67903;52.108;9.358;2023-11-18T16:27:11;12.13;;;10.30;;
64986;SDS011;67903;52.108;9.358;2023-11-18T16:29:57;13.82;;;10.55;;
64986;SDS011;67903;52.108;9.358;2023-11-18T16:32:43;13.80;;;10.77;;
64986;SDS011;67903;52.108;9.358;2023-11-18T16:35:34;14.45;;;11.05;;
64986;SDS011;67903;52.108;9.358;2023-11-18T16:38:21;16.27;;;11.23;;
64986;SDS011;67903;52.108;9.358;2023-11-18T16:41:06;14.85;;;11.93;;
64986;SDS011;67903;52.108;9.358;2023-11-18T16:43:52;13.68;;;10.65;;
64986;SDS011;67903;52.108;9.358;2023-11-18T16:46:38;16.67;;;12.35;;